N513LW KBLH-KNSI
Flight info
| Callsign | N513LW |
|---|---|
| Flight time | 1h 26m |
| Altitude | 20000 |
| Route | BLH J169 TRM GOATZ |
| Aircraft | B58T/L-VGD/C |
Departure
| Time | 2026-04-26 18:34 |
|---|---|
| Airport | Blythe Airport (KBLH) |
Arrival
| Time | 2026-04-26 20:01 |
|---|---|
| Airport | San Nicolas Island Nolf Airport (KNSI) |
| Time | Latitude | Longitude | Altitude | Speed | Heading |
|---|---|---|---|---|---|
| 2026-04-26 18:22 | 33.61430 | -114.71472 | 400 ft | 0 kts | 37° |
| 2026-04-26 18:31 | 33.61431 | -114.71471 | 400 ft | 2 kts | 37° |
| 2026-04-26 18:31 | 33.61480 | -114.71433 | 400 ft | 15 kts | 37° |
| 2026-04-26 18:31 | 33.61516 | -114.71279 | 400 ft | 25 kts | 90° |
| 2026-04-26 18:32 | 33.61516 | -114.71053 | 399 ft | 32 kts | 90° |
| 2026-04-26 18:32 | 33.61514 | -114.70808 | 399 ft | 26 kts | 91° |
| 2026-04-26 18:32 | 33.61547 | -114.70652 | 399 ft | 17 kts | 52° |
| 2026-04-26 18:32 | 33.61569 | -114.70628 | 399 ft | 0 kts | 22° |
| 2026-04-26 18:33 | 33.61595 | -114.70623 | 399 ft | 10 kts | 345° |
| 2026-04-26 18:33 | 33.61652 | -114.70742 | 398 ft | 37 kts | 271° |
| 2026-04-26 18:34 | 33.61661 | -114.71378 | 427 ft | 104 kts | 267° |
| 2026-04-26 18:34 | 33.61687 | -114.72336 | 694 ft | 122 kts | 268° |
| 2026-04-26 18:34 | 33.61661 | -114.73420 | 1028 ft | 134 kts | 253° |
| 2026-04-26 18:34 | 33.61139 | -114.74247 | 1602 ft | 123 kts | 225° |
| 2026-04-26 18:35 | 33.60501 | -114.74967 | 1988 ft | 129 kts | 228° |
| 2026-04-26 18:35 | 33.59909 | -114.75789 | 2367 ft | 132 kts | 237° |
| 2026-04-26 18:35 | 33.59635 | -114.76823 | 2745 ft | 132 kts | 265° |
| 2026-04-26 18:35 | 33.59643 | -114.77910 | 3110 ft | 128 kts | 266° |
| 2026-04-26 18:36 | 33.59672 | -114.78967 | 3474 ft | 125 kts | 267° |
| 2026-04-26 18:36 | 33.59704 | -114.79998 | 3841 ft | 122 kts | 268° |
| 2026-04-26 18:36 | 33.59735 | -114.81006 | 4263 ft | 120 kts | 268° |
| 2026-04-26 18:36 | 33.59764 | -114.82005 | 4720 ft | 120 kts | 269° |
| 2026-04-26 18:37 | 33.59794 | -114.82994 | 5158 ft | 117 kts | 269° |
| 2026-04-26 18:37 | 33.59822 | -114.83958 | 5603 ft | 114 kts | 270° |
| 2026-04-26 18:37 | 33.59848 | -114.84896 | 6047 ft | 111 kts | 270° |
| 2026-04-26 18:37 | 33.59872 | -114.85817 | 6505 ft | 110 kts | 271° |
| 2026-04-26 18:38 | 33.59897 | -114.86729 | 6933 ft | 110 kts | 271° |
| 2026-04-26 18:38 | 33.59924 | -114.87662 | 7325 ft | 113 kts | 271° |
| 2026-04-26 18:38 | 33.59943 | -114.88614 | 7724 ft | 116 kts | 271° |
| 2026-04-26 18:38 | 33.59975 | -114.89601 | 8104 ft | 121 kts | 271° |
| 2026-04-26 18:39 | 33.60005 | -114.90624 | 8490 ft | 124 kts | 271° |
| 2026-04-26 18:39 | 33.60034 | -114.91672 | 8882 ft | 127 kts | 271° |
| 2026-04-26 18:39 | 33.60063 | -114.92744 | 9281 ft | 130 kts | 271° |
| 2026-04-26 18:39 | 33.60093 | -114.93837 | 9681 ft | 132 kts | 271° |
| 2026-04-26 18:40 | 33.60124 | -114.94947 | 10048 ft | 134 kts | 271° |
| 2026-04-26 18:40 | 33.60154 | -114.96051 | 10405 ft | 134 kts | 270° |
| 2026-04-26 18:40 | 33.60184 | -114.97171 | 10769 ft | 134 kts | 270° |
| 2026-04-26 18:40 | 33.60224 | -114.98282 | 11138 ft | 132 kts | 271° |
| 2026-04-26 18:41 | 33.60252 | -114.99370 | 11512 ft | 130 kts | 269° |
| 2026-04-26 18:41 | 33.60272 | -115.00460 | 11894 ft | 131 kts | 269° |
| 2026-04-26 18:41 | 33.60298 | -115.01557 | 12291 ft | 132 kts | 270° |
| 2026-04-26 18:41 | 33.60327 | -115.02655 | 12672 ft | 132 kts | 270° |
| 2026-04-26 18:42 | 33.60356 | -115.03755 | 13064 ft | 132 kts | 270° |
| 2026-04-26 18:42 | 33.60385 | -115.04860 | 13465 ft | 133 kts | 270° |
| 2026-04-26 18:42 | 33.60415 | -115.05968 | 13850 ft | 133 kts | 270° |
| 2026-04-26 18:42 | 33.60444 | -115.07079 | 14206 ft | 134 kts | 269° |
| 2026-04-26 18:43 | 33.60473 | -115.08192 | 14562 ft | 133 kts | 269° |
| 2026-04-26 18:43 | 33.60502 | -115.09301 | 14921 ft | 133 kts | 269° |
| 2026-04-26 18:43 | 33.60532 | -115.10406 | 15288 ft | 132 kts | 268° |
| 2026-04-26 18:43 | 33.60560 | -115.11504 | 15658 ft | 131 kts | 268° |
| 2026-04-26 18:44 | 33.60588 | -115.12598 | 16032 ft | 131 kts | 268° |
| 2026-04-26 18:44 | 33.60616 | -115.13684 | 16411 ft | 130 kts | 267° |
| 2026-04-26 18:44 | 33.60643 | -115.14764 | 16805 ft | 129 kts | 267° |
| 2026-04-26 18:44 | 33.60671 | -115.15834 | 17193 ft | 128 kts | 266° |
| 2026-04-26 18:45 | 33.60697 | -115.16897 | 17585 ft | 127 kts | 266° |
| 2026-04-26 18:45 | 33.60724 | -115.17951 | 17985 ft | 126 kts | 266° |
| 2026-04-26 18:45 | 33.60751 | -115.18994 | 18362 ft | 125 kts | 265° |
| 2026-04-26 18:45 | 33.60777 | -115.20027 | 18710 ft | 123 kts | 265° |
| 2026-04-26 18:46 | 33.60802 | -115.21051 | 19068 ft | 122 kts | 264° |
| 2026-04-26 18:46 | 33.60827 | -115.22066 | 19424 ft | 121 kts | 264° |
| 2026-04-26 18:46 | 33.60852 | -115.23067 | 19786 ft | 119 kts | 264° |
| 2026-04-26 18:46 | 33.60874 | -115.24124 | 19883 ft | 135 kts | 264° |
| 2026-04-26 18:47 | 33.60897 | -115.25314 | 19909 ft | 150 kts | 265° |
| 2026-04-26 18:47 | 33.60928 | -115.26613 | 19914 ft | 161 kts | 265° |
| 2026-04-26 18:47 | 33.60964 | -115.27998 | 19923 ft | 170 kts | 266° |
| 2026-04-26 18:47 | 33.61002 | -115.29444 | 19923 ft | 177 kts | 266° |
| 2026-04-26 18:48 | 33.61040 | -115.30916 | 19920 ft | 181 kts | 266° |
| 2026-04-26 18:48 | 33.61081 | -115.32439 | 19917 ft | 179 kts | 266° |
| 2026-04-26 18:48 | 33.61120 | -115.33925 | 19881 ft | 176 kts | 266° |
| 2026-04-26 18:48 | 33.61159 | -115.35379 | 19901 ft | 173 kts | 266° |
| 2026-04-26 18:49 | 33.61190 | -115.36814 | 19917 ft | 172 kts | 266° |
| 2026-04-26 18:49 | 33.61220 | -115.38231 | 19924 ft | 173 kts | 266° |
| 2026-04-26 18:49 | 33.61256 | -115.39669 | 19927 ft | 173 kts | 266° |
| 2026-04-26 18:49 | 33.61290 | -115.41127 | 19925 ft | 172 kts | 266° |
| 2026-04-26 18:50 | 33.61323 | -115.42562 | 19918 ft | 172 kts | 266° |
| 2026-04-26 18:50 | 33.61356 | -115.43997 | 19919 ft | 172 kts | 266° |
| 2026-04-26 18:50 | 33.61388 | -115.45434 | 19924 ft | 173 kts | 266° |
| 2026-04-26 18:50 | 33.61421 | -115.46856 | 19921 ft | 173 kts | 266° |
| 2026-04-26 18:51 | 33.61454 | -115.48300 | 19918 ft | 173 kts | 266° |
| 2026-04-26 18:51 | 33.61487 | -115.49740 | 19919 ft | 172 kts | 266° |
| 2026-04-26 18:51 | 33.61519 | -115.51181 | 19920 ft | 173 kts | 266° |
| 2026-04-26 18:51 | 33.61552 | -115.52623 | 19926 ft | 173 kts | 266° |
| 2026-04-26 18:52 | 33.61584 | -115.54063 | 19920 ft | 172 kts | 266° |
| 2026-04-26 18:52 | 33.61617 | -115.55493 | 19919 ft | 171 kts | 266° |
| 2026-04-26 18:52 | 33.61648 | -115.56918 | 19929 ft | 171 kts | 266° |
| 2026-04-26 18:52 | 33.61679 | -115.58346 | 19933 ft | 172 kts | 266° |
| 2026-04-26 18:53 | 33.61710 | -115.59780 | 19930 ft | 172 kts | 266° |
| 2026-04-26 18:53 | 33.61741 | -115.61215 | 19930 ft | 172 kts | 266° |
| 2026-04-26 18:53 | 33.61772 | -115.62654 | 19926 ft | 172 kts | 266° |
| 2026-04-26 18:53 | 33.61803 | -115.64092 | 19923 ft | 172 kts | 266° |
| 2026-04-26 18:54 | 33.61833 | -115.65530 | 19926 ft | 172 kts | 266° |
| 2026-04-26 18:54 | 33.61864 | -115.66970 | 19929 ft | 173 kts | 266° |
| 2026-04-26 18:54 | 33.61894 | -115.68411 | 19929 ft | 173 kts | 266° |
| 2026-04-26 18:54 | 33.61925 | -115.69858 | 19932 ft | 174 kts | 266° |
| 2026-04-26 18:55 | 33.61955 | -115.71307 | 19930 ft | 174 kts | 266° |
| 2026-04-26 18:55 | 33.61986 | -115.72756 | 19929 ft | 174 kts | 266° |
| 2026-04-26 18:55 | 33.62016 | -115.74206 | 19929 ft | 174 kts | 267° |
| 2026-04-26 18:55 | 33.62046 | -115.75656 | 19929 ft | 174 kts | 266° |
| 2026-04-26 18:56 | 33.62076 | -115.77106 | 19942 ft | 174 kts | 266° |
| 2026-04-26 18:56 | 33.62106 | -115.78555 | 19941 ft | 174 kts | 266° |
| 2026-04-26 18:56 | 33.62135 | -115.80004 | 19942 ft | 174 kts | 266° |
| 2026-04-26 18:56 | 33.62164 | -115.81453 | 19941 ft | 174 kts | 266° |
| 2026-04-26 18:57 | 33.62192 | -115.82901 | 19928 ft | 174 kts | 266° |
| 2026-04-26 18:57 | 33.62211 | -115.83860 | 19928 ft | 174 kts | 267° |
| 2026-04-26 18:57 | 33.62250 | -115.85797 | 19931 ft | 174 kts | 266° |
| 2026-04-26 18:57 | 33.62278 | -115.87248 | 19937 ft | 174 kts | 266° |
| 2026-04-26 18:58 | 33.62306 | -115.88709 | 19939 ft | 176 kts | 266° |
| 2026-04-26 18:58 | 33.62334 | -115.90178 | 19951 ft | 177 kts | 266° |
| 2026-04-26 18:58 | 33.62363 | -115.91651 | 19944 ft | 176 kts | 267° |
| 2026-04-26 18:58 | 33.62392 | -115.93105 | 19957 ft | 178 kts | 267° |
| 2026-04-26 18:59 | 33.62422 | -115.94590 | 19953 ft | 179 kts | 266° |
| 2026-04-26 18:59 | 33.62448 | -115.96082 | 19938 ft | 179 kts | 268° |
| 2026-04-26 18:59 | 33.62475 | -115.97572 | 19938 ft | 178 kts | 268° |
| 2026-04-26 18:59 | 33.62502 | -115.99057 | 19941 ft | 178 kts | 268° |
| 2026-04-26 19:00 | 33.62530 | -116.00538 | 19941 ft | 178 kts | 268° |
| 2026-04-26 19:00 | 33.62559 | -116.02016 | 19972 ft | 178 kts | 267° |
| 2026-04-26 19:00 | 33.62586 | -116.03504 | 19969 ft | 179 kts | 267° |
| 2026-04-26 19:00 | 33.62611 | -116.04997 | 19959 ft | 179 kts | 267° |
| 2026-04-26 19:01 | 33.62637 | -116.06492 | 19953 ft | 179 kts | 268° |
| 2026-04-26 19:01 | 33.62664 | -116.07989 | 19954 ft | 179 kts | 267° |
| 2026-04-26 19:01 | 33.62690 | -116.09479 | 19957 ft | 179 kts | 267° |
| 2026-04-26 19:01 | 33.62716 | -116.10971 | 19958 ft | 178 kts | 267° |
| 2026-04-26 19:02 | 33.62743 | -116.12456 | 19957 ft | 178 kts | 267° |
| 2026-04-26 19:02 | 33.62770 | -116.13940 | 19950 ft | 178 kts | 267° |
| 2026-04-26 19:02 | 33.62789 | -116.15421 | 19950 ft | 177 kts | 265° |
| 2026-04-26 19:02 | 33.62731 | -116.16394 | 19950 ft | 176 kts | 260° |
| 2026-04-26 19:03 | 33.62427 | -116.18312 | 19951 ft | 175 kts | 257° |
| 2026-04-26 19:03 | 33.62189 | -116.19744 | 19955 ft | 175 kts | 257° |
| 2026-04-26 19:03 | 33.61951 | -116.21180 | 19958 ft | 176 kts | 257° |
| 2026-04-26 19:03 | 33.61710 | -116.22629 | 19972 ft | 178 kts | 257° |
| 2026-04-26 19:04 | 33.61468 | -116.24093 | 19958 ft | 180 kts | 257° |
| 2026-04-26 19:04 | 33.61224 | -116.25563 | 19943 ft | 179 kts | 257° |
| 2026-04-26 19:04 | 33.60980 | -116.27027 | 19934 ft | 179 kts | 258° |
| 2026-04-26 19:04 | 33.60738 | -116.28487 | 19955 ft | 179 kts | 257° |
| 2026-04-26 19:05 | 33.60247 | -116.31419 | 19948 ft | 179 kts | 258° |
| 2026-04-26 19:05 | 33.60005 | -116.32872 | 19933 ft | 176 kts | 257° |
| 2026-04-26 19:05 | 33.59767 | -116.34305 | 19947 ft | 175 kts | 257° |
| 2026-04-26 19:06 | 33.59528 | -116.35732 | 19945 ft | 174 kts | 257° |
| 2026-04-26 19:06 | 33.59290 | -116.37151 | 19939 ft | 173 kts | 257° |
| 2026-04-26 19:06 | 33.59051 | -116.38572 | 19964 ft | 175 kts | 258° |
| 2026-04-26 19:06 | 33.58810 | -116.40008 | 19965 ft | 177 kts | 258° |
| 2026-04-26 19:07 | 33.58567 | -116.41458 | 19961 ft | 178 kts | 258° |
| 2026-04-26 19:07 | 33.58326 | -116.42900 | 19951 ft | 179 kts | 258° |
| 2026-04-26 19:07 | 33.58081 | -116.44364 | 19947 ft | 179 kts | 258° |
| 2026-04-26 19:07 | 33.57836 | -116.45826 | 19944 ft | 179 kts | 258° |
| 2026-04-26 19:08 | 33.57590 | -116.47285 | 19943 ft | 178 kts | 257° |
| 2026-04-26 19:08 | 33.57345 | -116.48740 | 19948 ft | 178 kts | 258° |
| 2026-04-26 19:08 | 33.57100 | -116.50195 | 19946 ft | 178 kts | 258° |
| 2026-04-26 19:08 | 33.56855 | -116.51648 | 19956 ft | 178 kts | 257° |
| 2026-04-26 19:09 | 33.56609 | -116.53101 | 19962 ft | 178 kts | 258° |
| 2026-04-26 19:09 | 33.56364 | -116.54554 | 19958 ft | 178 kts | 258° |
| 2026-04-26 19:09 | 33.56119 | -116.56005 | 19957 ft | 177 kts | 258° |
| 2026-04-26 19:09 | 33.55874 | -116.57448 | 19952 ft | 176 kts | 259° |
| 2026-04-26 19:10 | 33.55631 | -116.58891 | 19968 ft | 177 kts | 258° |
| 2026-04-26 19:10 | 33.55386 | -116.60337 | 19966 ft | 177 kts | 258° |
| 2026-04-26 19:10 | 33.55141 | -116.61783 | 19960 ft | 177 kts | 258° |
| 2026-04-26 19:10 | 33.54896 | -116.63225 | 19971 ft | 177 kts | 258° |
| 2026-04-26 19:11 | 33.54651 | -116.64671 | 19972 ft | 177 kts | 258° |
| 2026-04-26 19:11 | 33.54404 | -116.66121 | 19971 ft | 177 kts | 258° |
| 2026-04-26 19:11 | 33.54158 | -116.67570 | 19977 ft | 177 kts | 258° |
| 2026-04-26 19:11 | 33.53912 | -116.69019 | 19976 ft | 177 kts | 258° |
| 2026-04-26 19:12 | 33.53666 | -116.70463 | 19974 ft | 177 kts | 258° |
| 2026-04-26 19:12 | 33.53420 | -116.71907 | 19978 ft | 177 kts | 258° |
| 2026-04-26 19:12 | 33.53173 | -116.73352 | 19984 ft | 177 kts | 258° |
| 2026-04-26 19:12 | 33.52926 | -116.74797 | 19982 ft | 177 kts | 258° |
| 2026-04-26 19:13 | 33.52680 | -116.76242 | 19994 ft | 177 kts | 258° |
| 2026-04-26 19:13 | 33.52433 | -116.77689 | 19995 ft | 177 kts | 258° |
| 2026-04-26 19:13 | 33.52185 | -116.79136 | 19998 ft | 178 kts | 258° |
| 2026-04-26 19:13 | 33.51937 | -116.80587 | 19993 ft | 177 kts | 258° |
| 2026-04-26 19:14 | 33.51689 | -116.82034 | 19998 ft | 177 kts | 258° |
| 2026-04-26 19:14 | 33.51441 | -116.83483 | 20002 ft | 178 kts | 258° |
| 2026-04-26 19:14 | 33.51192 | -116.84935 | 20004 ft | 178 kts | 258° |
| 2026-04-26 19:14 | 33.51108 | -116.85427 | 20004 ft | 178 kts | 258° |
| 2026-04-26 19:15 | 33.50692 | -116.87847 | 20018 ft | 179 kts | 259° |
| 2026-04-26 19:15 | 33.50526 | -116.88813 | 20014 ft | 179 kts | 259° |
| 2026-04-26 19:15 | 33.50275 | -116.90271 | 20011 ft | 179 kts | 259° |
| 2026-04-26 19:15 | 33.50025 | -116.91729 | 20007 ft | 179 kts | 259° |
| 2026-04-26 19:16 | 33.49774 | -116.93185 | 20011 ft | 179 kts | 259° |
| 2026-04-26 19:16 | 33.49522 | -116.94644 | 20010 ft | 179 kts | 259° |
| 2026-04-26 19:16 | 33.49271 | -116.96104 | 20012 ft | 179 kts | 259° |
| 2026-04-26 19:16 | 33.49018 | -116.97568 | 20011 ft | 179 kts | 259° |
| 2026-04-26 19:17 | 33.48765 | -116.99029 | 20008 ft | 179 kts | 259° |
| 2026-04-26 19:17 | 33.48513 | -117.00493 | 20014 ft | 180 kts | 259° |
| 2026-04-26 19:17 | 33.48259 | -117.01958 | 20018 ft | 180 kts | 259° |
| 2026-04-26 19:17 | 33.48004 | -117.03429 | 20009 ft | 180 kts | 259° |
| 2026-04-26 19:18 | 33.47750 | -117.04895 | 20006 ft | 179 kts | 259° |
| 2026-04-26 19:18 | 33.47497 | -117.06354 | 20006 ft | 179 kts | 259° |
| 2026-04-26 19:18 | 33.47245 | -117.07810 | 20009 ft | 178 kts | 259° |
| 2026-04-26 19:18 | 33.46992 | -117.09264 | 20007 ft | 178 kts | 259° |
| 2026-04-26 19:19 | 33.46740 | -117.10714 | 20007 ft | 178 kts | 259° |
| 2026-04-26 19:19 | 33.46488 | -117.12164 | 20013 ft | 178 kts | 259° |
| 2026-04-26 19:19 | 33.46236 | -117.13613 | 20010 ft | 177 kts | 258° |
| 2026-04-26 19:19 | 33.45986 | -117.15049 | 20007 ft | 176 kts | 259° |
| 2026-04-26 19:20 | 33.45735 | -117.16485 | 20016 ft | 177 kts | 259° |
| 2026-04-26 19:20 | 33.45569 | -117.17437 | 20009 ft | 177 kts | 259° |
| 2026-04-26 19:20 | 33.45234 | -117.19367 | 20026 ft | 177 kts | 259° |
| 2026-04-26 19:20 | 33.44982 | -117.20808 | 20026 ft | 177 kts | 259° |
| 2026-04-26 19:21 | 33.44728 | -117.22253 | 20045 ft | 178 kts | 259° |
| 2026-04-26 19:21 | 33.44475 | -117.23702 | 20036 ft | 178 kts | 259° |
| 2026-04-26 19:21 | 33.44221 | -117.25156 | 20039 ft | 178 kts | 259° |
| 2026-04-26 19:21 | 33.43967 | -117.26606 | 20028 ft | 177 kts | 259° |
| 2026-04-26 19:22 | 33.43714 | -117.28048 | 20041 ft | 177 kts | 259° |
| 2026-04-26 19:22 | 33.43459 | -117.29495 | 20052 ft | 178 kts | 259° |
| 2026-04-26 19:22 | 33.43204 | -117.30947 | 20044 ft | 179 kts | 259° |
| 2026-04-26 19:22 | 33.42952 | -117.32385 | 20044 ft | 179 kts | 259° |
| 2026-04-26 19:23 | 33.42696 | -117.33843 | 20029 ft | 178 kts | 259° |
| 2026-04-26 19:23 | 33.42441 | -117.35293 | 20038 ft | 178 kts | 259° |
| 2026-04-26 19:23 | 33.42185 | -117.36740 | 20036 ft | 178 kts | 259° |
| 2026-04-26 19:23 | 33.41931 | -117.38180 | 20042 ft | 176 kts | 259° |
| 2026-04-26 19:24 | 33.41679 | -117.39619 | 20050 ft | 177 kts | 259° |
| 2026-04-26 19:24 | 33.41425 | -117.41061 | 20054 ft | 178 kts | 259° |
| 2026-04-26 19:24 | 33.40910 | -117.43982 | 20043 ft | 180 kts | 259° |
| 2026-04-26 19:25 | 33.40651 | -117.45447 | 20042 ft | 180 kts | 259° |
| 2026-04-26 19:25 | 33.40475 | -117.46437 | 20038 ft | 180 kts | 259° |
| 2026-04-26 19:25 | 33.40130 | -117.48377 | 20035 ft | 180 kts | 259° |
| 2026-04-26 19:25 | 33.39870 | -117.49843 | 20038 ft | 180 kts | 259° |
| 2026-04-26 19:26 | 33.39611 | -117.51309 | 20040 ft | 180 kts | 259° |
| 2026-04-26 19:26 | 33.39351 | -117.52775 | 20041 ft | 180 kts | 259° |
| 2026-04-26 19:26 | 33.39091 | -117.54242 | 20040 ft | 180 kts | 259° |
| 2026-04-26 19:26 | 33.38830 | -117.55708 | 20040 ft | 180 kts | 259° |
| 2026-04-26 19:27 | 33.38569 | -117.57177 | 20038 ft | 180 kts | 259° |
| 2026-04-26 19:27 | 33.38308 | -117.58643 | 20044 ft | 180 kts | 259° |
| 2026-04-26 19:27 | 33.38046 | -117.60110 | 20042 ft | 180 kts | 259° |
| 2026-04-26 19:27 | 33.37785 | -117.61575 | 20039 ft | 180 kts | 259° |
| 2026-04-26 19:28 | 33.37524 | -117.63038 | 20037 ft | 180 kts | 259° |
| 2026-04-26 19:28 | 33.37266 | -117.64481 | 20037 ft | 180 kts | 259° |
| 2026-04-26 19:28 | 33.37002 | -117.65964 | 20037 ft | 180 kts | 259° |
| 2026-04-26 19:28 | 33.36743 | -117.67409 | 20036 ft | 180 kts | 259° |
| 2026-04-26 19:29 | 33.36482 | -117.68872 | 20033 ft | 180 kts | 259° |
| 2026-04-26 19:29 | 33.36217 | -117.70354 | 20039 ft | 180 kts | 259° |
| 2026-04-26 19:29 | 33.35958 | -117.71795 | 20041 ft | 180 kts | 259° |
| 2026-04-26 19:29 | 33.35697 | -117.73255 | 20036 ft | 180 kts | 259° |
| 2026-04-26 19:30 | 33.35435 | -117.74714 | 20036 ft | 180 kts | 259° |
| 2026-04-26 19:30 | 33.35173 | -117.76174 | 20037 ft | 180 kts | 259° |
| 2026-04-26 19:30 | 33.34910 | -117.77635 | 20037 ft | 180 kts | 259° |
| 2026-04-26 19:30 | 33.34733 | -117.78622 | 20037 ft | 180 kts | 259° |
| 2026-04-26 19:31 | 33.34384 | -117.80560 | 20036 ft | 180 kts | 259° |
| 2026-04-26 19:31 | 33.34121 | -117.82023 | 20036 ft | 180 kts | 259° |
| 2026-04-26 19:31 | 33.33858 | -117.83484 | 20041 ft | 180 kts | 259° |
| 2026-04-26 19:31 | 33.33594 | -117.84946 | 20036 ft | 180 kts | 259° |
| 2026-04-26 19:32 | 33.33331 | -117.86406 | 20038 ft | 180 kts | 259° |
| 2026-04-26 19:32 | 33.33067 | -117.87867 | 20041 ft | 180 kts | 259° |
| 2026-04-26 19:32 | 33.32803 | -117.89331 | 20033 ft | 180 kts | 259° |
| 2026-04-26 19:32 | 33.32539 | -117.90792 | 20033 ft | 180 kts | 259° |
| 2026-04-26 19:33 | 33.32274 | -117.92253 | 20039 ft | 180 kts | 259° |
| 2026-04-26 19:33 | 33.32009 | -117.93715 | 20033 ft | 180 kts | 259° |
| 2026-04-26 19:33 | 33.31745 | -117.95176 | 20033 ft | 180 kts | 259° |
| 2026-04-26 19:33 | 33.31479 | -117.96639 | 20036 ft | 180 kts | 259° |
| 2026-04-26 19:34 | 33.31214 | -117.98101 | 20031 ft | 180 kts | 259° |
| 2026-04-26 19:34 | 33.30949 | -117.99560 | 20038 ft | 180 kts | 259° |
| 2026-04-26 19:34 | 33.30683 | -118.01023 | 20032 ft | 180 kts | 259° |
| 2026-04-26 19:34 | 33.30418 | -118.02484 | 20043 ft | 180 kts | 259° |
| 2026-04-26 19:35 | 33.30152 | -118.03944 | 20032 ft | 180 kts | 259° |
| 2026-04-26 19:35 | 33.29886 | -118.05402 | 20032 ft | 180 kts | 259° |
| 2026-04-26 19:35 | 33.29620 | -118.06864 | 20035 ft | 180 kts | 259° |
| 2026-04-26 19:35 | 33.29353 | -118.08330 | 20032 ft | 181 kts | 259° |
| 2026-04-26 19:36 | 33.29089 | -118.09778 | 20036 ft | 181 kts | 259° |
| 2026-04-26 19:36 | 33.28907 | -118.10771 | 20036 ft | 181 kts | 259° |
| 2026-04-26 19:36 | 33.28548 | -118.12741 | 20042 ft | 181 kts | 259° |
| 2026-04-26 19:36 | 33.28282 | -118.14195 | 20042 ft | 182 kts | 259° |
| 2026-04-26 19:37 | 33.28012 | -118.15669 | 20048 ft | 182 kts | 259° |
| 2026-04-26 19:37 | 33.27738 | -118.17164 | 20050 ft | 182 kts | 259° |
| 2026-04-26 19:37 | 33.27468 | -118.18643 | 19863 ft | 190 kts | 259° |
| 2026-04-26 19:37 | 33.27182 | -118.20219 | 19624 ft | 198 kts | 259° |
| 2026-04-26 19:38 | 33.26885 | -118.21849 | 19383 ft | 204 kts | 259° |
| 2026-04-26 19:38 | 33.26580 | -118.23519 | 19144 ft | 208 kts | 259° |
| 2026-04-26 19:38 | 33.26268 | -118.25217 | 18905 ft | 211 kts | 259° |
| 2026-04-26 19:38 | 33.25953 | -118.26936 | 18672 ft | 213 kts | 259° |
| 2026-04-26 19:39 | 33.25635 | -118.28669 | 18437 ft | 214 kts | 259° |
| 2026-04-26 19:39 | 33.25314 | -118.30412 | 18179 ft | 215 kts | 259° |
| 2026-04-26 19:39 | 33.24991 | -118.32164 | 17882 ft | 217 kts | 259° |
| 2026-04-26 19:39 | 33.24667 | -118.33925 | 17587 ft | 217 kts | 259° |
| 2026-04-26 19:40 | 33.24344 | -118.35677 | 17296 ft | 214 kts | 259° |
| 2026-04-26 19:40 | 33.24024 | -118.37400 | 16999 ft | 212 kts | 259° |
| 2026-04-26 19:40 | 33.23708 | -118.39107 | 16710 ft | 210 kts | 259° |
| 2026-04-26 19:40 | 33.23392 | -118.40808 | 16426 ft | 209 kts | 259° |
| 2026-04-26 19:41 | 33.23079 | -118.42495 | 16147 ft | 208 kts | 260° |
| 2026-04-26 19:41 | 33.22766 | -118.44176 | 15869 ft | 207 kts | 260° |
| 2026-04-26 19:41 | 33.22456 | -118.45852 | 15594 ft | 206 kts | 260° |
| 2026-04-26 19:41 | 33.22250 | -118.46960 | 15414 ft | 206 kts | 260° |
| 2026-04-26 19:42 | 33.21835 | -118.49190 | 15053 ft | 205 kts | 260° |
| 2026-04-26 19:42 | 33.21526 | -118.50850 | 14783 ft | 205 kts | 260° |
| 2026-04-26 19:42 | 33.21218 | -118.52505 | 14513 ft | 204 kts | 260° |
| 2026-04-26 19:42 | 33.20910 | -118.54156 | 14256 ft | 203 kts | 260° |
| 2026-04-26 19:43 | 33.20603 | -118.55804 | 13998 ft | 203 kts | 260° |
| 2026-04-26 19:43 | 33.20301 | -118.57422 | 13727 ft | 202 kts | 260° |
| 2026-04-26 19:43 | 33.19991 | -118.59082 | 13429 ft | 202 kts | 260° |
| 2026-04-26 19:43 | 33.19690 | -118.60691 | 13140 ft | 201 kts | 260° |
| 2026-04-26 19:44 | 33.19386 | -118.62317 | 12848 ft | 200 kts | 261° |
| 2026-04-26 19:44 | 33.19083 | -118.63938 | 12562 ft | 200 kts | 261° |
| 2026-04-26 19:44 | 33.18780 | -118.65556 | 12278 ft | 199 kts | 261° |
| 2026-04-26 19:44 | 33.18478 | -118.67165 | 11995 ft | 199 kts | 260° |
| 2026-04-26 19:45 | 33.18205 | -118.68779 | 11717 ft | 198 kts | 262° |
| 2026-04-26 19:45 | 33.17987 | -118.70395 | 11441 ft | 197 kts | 263° |
| 2026-04-26 19:45 | 33.17786 | -118.72007 | 11167 ft | 196 kts | 264° |
| 2026-04-26 19:45 | 33.17587 | -118.73612 | 10897 ft | 195 kts | 264° |
| 2026-04-26 19:46 | 33.17386 | -118.75214 | 10627 ft | 195 kts | 263° |
| 2026-04-26 19:46 | 33.17180 | -118.76810 | 10361 ft | 194 kts | 263° |
| 2026-04-26 19:46 | 33.16973 | -118.78397 | 10100 ft | 193 kts | 263° |
| 2026-04-26 19:46 | 33.16763 | -118.79979 | 9826 ft | 193 kts | 263° |
| 2026-04-26 19:47 | 33.16553 | -118.81556 | 9539 ft | 192 kts | 263° |
| 2026-04-26 19:47 | 33.16410 | -118.82617 | 9338 ft | 191 kts | 263° |
| 2026-04-26 19:47 | 33.16131 | -118.84691 | 8958 ft | 191 kts | 263° |
| 2026-04-26 19:47 | 33.15920 | -118.86249 | 8682 ft | 190 kts | 262° |
| 2026-04-26 19:48 | 33.15710 | -118.87796 | 8425 ft | 188 kts | 262° |
| 2026-04-26 19:48 | 33.15500 | -118.89334 | 8177 ft | 188 kts | 262° |
| 2026-04-26 19:48 | 33.15292 | -118.90867 | 7923 ft | 187 kts | 262° |
| 2026-04-26 19:48 | 33.15085 | -118.92393 | 7698 ft | 186 kts | 262° |
| 2026-04-26 19:49 | 33.14879 | -118.93909 | 7476 ft | 185 kts | 262° |
| 2026-04-26 19:49 | 33.14675 | -118.95417 | 7253 ft | 184 kts | 262° |
| 2026-04-26 19:49 | 33.14471 | -118.96917 | 7032 ft | 183 kts | 262° |
| 2026-04-26 19:49 | 33.14268 | -118.98408 | 6814 ft | 182 kts | 262° |
| 2026-04-26 19:50 | 33.14065 | -118.99894 | 6594 ft | 181 kts | 262° |
| 2026-04-26 19:50 | 33.13864 | -119.01373 | 6372 ft | 180 kts | 262° |
| 2026-04-26 19:50 | 33.13662 | -119.02849 | 6140 ft | 180 kts | 262° |
| 2026-04-26 19:50 | 33.13461 | -119.04322 | 5905 ft | 180 kts | 262° |
| 2026-04-26 19:51 | 33.13261 | -119.05791 | 5680 ft | 179 kts | 262° |
| 2026-04-26 19:51 | 33.13061 | -119.07253 | 5451 ft | 178 kts | 262° |
| 2026-04-26 19:51 | 33.12861 | -119.08710 | 5228 ft | 178 kts | 262° |
| 2026-04-26 19:51 | 33.12661 | -119.10167 | 5004 ft | 177 kts | 262° |
| 2026-04-26 19:52 | 33.12466 | -119.11588 | 4801 ft | 171 kts | 262° |
| 2026-04-26 19:52 | 33.12275 | -119.12975 | 4599 ft | 168 kts | 262° |
| 2026-04-26 19:52 | 33.12085 | -119.14349 | 4394 ft | 168 kts | 262° |
| 2026-04-26 19:52 | 33.11897 | -119.15717 | 4182 ft | 167 kts | 263° |
| 2026-04-26 19:53 | 33.11710 | -119.17076 | 3977 ft | 166 kts | 263° |
| 2026-04-26 19:53 | 33.11524 | -119.18434 | 3774 ft | 166 kts | 262° |
| 2026-04-26 19:53 | 33.11337 | -119.19790 | 3564 ft | 165 kts | 262° |
| 2026-04-26 19:53 | 33.11149 | -119.21141 | 3360 ft | 165 kts | 263° |
| 2026-04-26 19:54 | 33.10963 | -119.22489 | 3160 ft | 165 kts | 262° |
| 2026-04-26 19:54 | 33.10778 | -119.23833 | 3026 ft | 161 kts | 262° |
| 2026-04-26 19:54 | 33.10598 | -119.25122 | 3003 ft | 155 kts | 262° |
| 2026-04-26 19:54 | 33.10424 | -119.26370 | 2999 ft | 151 kts | 263° |
| 2026-04-26 19:55 | 33.10350 | -119.27567 | 2997 ft | 141 kts | 277° |
| 2026-04-26 19:55 | 33.10705 | -119.28666 | 2783 ft | 143 kts | 304° |
| 2026-04-26 19:55 | 33.11394 | -119.29533 | 2575 ft | 144 kts | 311° |
| 2026-04-26 19:55 | 33.12059 | -119.30424 | 2368 ft | 143 kts | 309° |
| 2026-04-26 19:56 | 33.12723 | -119.31309 | 2167 ft | 144 kts | 310° |
| 2026-04-26 19:56 | 33.13390 | -119.32164 | 2137 ft | 141 kts | 311° |
| 2026-04-26 19:56 | 33.14057 | -119.33011 | 2116 ft | 139 kts | 310° |
| 2026-04-26 19:56 | 33.14712 | -119.33851 | 2104 ft | 137 kts | 311° |
| 2026-04-26 19:57 | 33.15356 | -119.34680 | 2104 ft | 136 kts | 309° |
| 2026-04-26 19:57 | 33.15994 | -119.35506 | 2111 ft | 135 kts | 310° |
| 2026-04-26 19:57 | 33.16630 | -119.36325 | 2103 ft | 134 kts | 310° |
| 2026-04-26 19:57 | 33.17262 | -119.37140 | 2098 ft | 133 kts | 310° |
| 2026-04-26 19:58 | 33.17889 | -119.37949 | 2064 ft | 134 kts | 310° |
| 2026-04-26 19:58 | 33.18504 | -119.38740 | 1899 ft | 120 kts | 310° |
| 2026-04-26 19:58 | 33.19044 | -119.39438 | 1735 ft | 110 kts | 309° |
| 2026-04-26 19:58 | 33.19554 | -119.40103 | 1579 ft | 107 kts | 309° |
| 2026-04-26 19:59 | 33.20056 | -119.40754 | 1439 ft | 105 kts | 308° |
| 2026-04-26 19:59 | 33.20546 | -119.41382 | 1284 ft | 103 kts | 309° |
| 2026-04-26 19:59 | 33.21026 | -119.42006 | 1139 ft | 101 kts | 305° |
| 2026-04-26 19:59 | 33.21495 | -119.42611 | 1008 ft | 99 kts | 306° |
| 2026-04-26 20:00 | 33.21959 | -119.43219 | 898 ft | 98 kts | 308° |
| 2026-04-26 20:00 | 33.22434 | -119.43806 | 799 ft | 97 kts | 303° |
| 2026-04-26 20:00 | 33.22882 | -119.44389 | 643 ft | 95 kts | 307° |
| 2026-04-26 20:00 | 33.23320 | -119.44956 | 536 ft | 87 kts | 309° |
| 2026-04-26 20:01 | 33.23659 | -119.45412 | 520 ft | 63 kts | 316° |
| 2026-04-26 20:01 | 33.23893 | -119.45703 | 516 ft | 17 kts | 307° |
| 2026-04-26 20:01 | 33.23850 | -119.45781 | 518 ft | 13 kts | 222° |
| 2026-04-26 20:01 | 33.23833 | -119.45799 | 518 ft | 0 kts | 223° |
| 2026-04-26 20:02 | 33.23833 | -119.45800 | 518 ft | 1 kts | 223° |
| 2026-04-26 20:02 | 33.23830 | -119.45803 | 518 ft | 4 kts | 223° |
| 2026-04-26 20:03 | 33.23856 | -119.45934 | 517 ft | 19 kts | 312° |
| 2026-04-26 20:03 | 33.23923 | -119.46020 | 513 ft | 23 kts | 313° |
| 2026-04-26 20:03 | 33.24040 | -119.46170 | 508 ft | 25 kts | 314° |
| 2026-04-26 20:03 | 33.24174 | -119.46342 | 500 ft | 13 kts | 303° |
| 2026-04-26 20:04 | 33.24155 | -119.46358 | 500 ft | 0 kts | 150° |